createdAt,value
2023-05-18T00:00:05.421Z,99.90
2023-05-18T00:02:32.334Z,99.90
2023-05-18T00:05:02.313Z,99.90
2023-05-18T00:07:34.265Z,99.90
2023-05-18T00:10:01.863Z,99.90
2023-05-18T00:12:29.194Z,99.90
2023-05-18T00:14:56.408Z,99.90
2023-05-18T00:17:23.577Z,99.90
2023-05-18T00:19:50.767Z,99.90
2023-05-18T00:22:20.402Z,99.90
2023-05-18T00:24:48.420Z,99.90
2023-05-18T00:27:15.580Z,99.90
2023-05-18T00:29:42.448Z,99.90
2023-05-18T00:32:09.457Z,99.90
2023-05-18T00:34:36.605Z,99.90
2023-05-18T00:37:03.579Z,99.90
2023-05-18T00:39:30.484Z,99.90
2023-05-18T00:41:57.459Z,99.90
2023-05-18T00:44:24.485Z,99.90
2023-05-18T00:46:51.624Z,99.90
2023-05-18T00:49:19.170Z,99.90
2023-05-18T00:51:46.901Z,99.90
2023-05-18T00:54:14.615Z,99.90
2023-05-18T00:56:42.239Z,99.90
2023-05-18T00:59:12.305Z,99.90
2023-05-18T01:01:43.905Z,99.90
2023-05-18T01:04:14.233Z,99.90
2023-05-18T01:06:42.422Z,99.90
2023-05-18T01:09:13.550Z,99.90
2023-05-18T01:11:52.893Z,99.90
2023-05-18T01:15:08.736Z,99.90
2023-05-18T01:18:10.458Z,99.90
2023-05-18T01:20:45.860Z,99.90
2023-05-18T01:23:35.593Z,99.90
2023-05-18T01:26:15.848Z,99.90
2023-05-18T01:28:46.276Z,99.90
2023-05-18T01:31:16.114Z,99.90
2023-05-18T01:33:44.421Z,99.90
2023-05-18T01:36:11.806Z,99.90
2023-05-18T01:38:41.646Z,99.90
2023-05-18T01:41:27.439Z,99.90
2023-05-18T01:44:12.422Z,99.90
2023-05-18T01:46:48.272Z,99.90
2023-05-18T01:49:30.871Z,99.90
2023-05-18T01:52:03.433Z,99.90
2023-05-18T01:54:32.290Z,99.90
2023-05-18T01:56:59.836Z,99.90
2023-05-18T01:59:26.931Z,99.90
2023-05-18T02:01:59.513Z,99.90
2023-05-18T02:04:27.576Z,99.90
2023-05-18T02:06:55.290Z,99.90
2023-05-18T15:39:29.750Z,54.20
2023-05-18T15:41:56.652Z,54.80
2023-05-18T15:44:23.560Z,55.20
2023-05-18T15:46:51.004Z,55.10
2023-05-18T15:49:18.895Z,55.10
2023-05-18T15:51:45.870Z,55.30
2023-05-18T15:54:15.347Z,56.20
2023-05-18T15:56:43.068Z,56.40
2023-05-18T15:59:10.153Z,56.40
2023-05-18T16:01:37.166Z,56.60
2023-05-18T16:04:04.279Z,56.90
2023-05-18T16:06:31.155Z,57.70
2023-05-18T16:08:58.092Z,58.80
2023-05-18T16:11:24.927Z,59.00
2023-05-18T16:13:56.663Z,59.70
2023-05-18T16:16:25.267Z,60.40
2023-05-18T16:18:52.416Z,61.00
2023-05-18T16:21:19.666Z,61.20
2023-05-18T16:23:46.736Z,61.80
2023-05-18T16:26:14.039Z,62.00
2023-05-18T16:28:40.914Z,62.40
2023-05-18T16:31:10.896Z,63.10
2023-05-18T16:33:41.015Z,63.90
2023-05-18T16:36:08.254Z,64.50
2023-05-18T16:38:37.347Z,65.20
2023-05-18T16:41:05.299Z,66.40
2023-05-18T16:43:32.688Z,66.10
2023-05-18T16:46:00.018Z,66.20
2023-05-18T16:48:26.881Z,67.40
2023-05-18T16:50:53.768Z,67.70
2023-05-18T16:53:20.609Z,67.90
2023-05-18T16:55:47.489Z,68.10
2023-05-18T16:58:14.353Z,68.30
2023-05-18T17:00:41.225Z,69.20
2023-05-18T17:03:08.228Z,69.40
2023-05-18T17:05:35.427Z,69.90
2023-05-18T17:08:02.449Z,71.40
2023-05-18T17:10:32.057Z,71.40
2023-05-18T17:12:59.862Z,71.90
2023-05-18T17:15:26.738Z,72.30
2023-05-18T17:17:53.626Z,73.10
2023-05-18T17:20:21.013Z,73.70
2023-05-18T17:22:47.930Z,73.80
2023-05-18T17:25:14.975Z,74.30
2023-05-18T17:27:41.879Z,74.70
2023-05-18T17:30:09.307Z,74.70
2023-05-18T17:32:36.292Z,74.60
2023-05-18T17:35:05.518Z,75.00
2023-05-18T17:37:32.518Z,75.70
2023-05-18T17:39:59.357Z,77.00
2023-05-18T17:42:26.305Z,76.50
2023-05-18T17:44:53.196Z,76.40
2023-05-18T17:47:22.054Z,76.70
2023-05-18T17:49:51.336Z,76.90
2023-05-18T17:52:18.219Z,76.00
2023-05-18T17:54:45.209Z,76.70
2023-05-18T17:57:12.049Z,76.30
2023-05-18T17:59:38.980Z,77.30
2023-05-18T18:02:06.287Z,77.40
2023-05-18T18:04:33.135Z,77.10
2023-05-18T18:07:01.785Z,77.50
2023-05-18T18:09:28.850Z,78.20
2023-05-18T18:11:57.926Z,78.40
2023-05-18T18:14:24.759Z,78.50
2023-05-18T18:16:51.869Z,78.90
2023-05-18T18:19:18.818Z,79.90
2023-05-18T18:21:53.324Z,79.80
2023-05-18T18:24:21.434Z,80.00
2023-05-18T18:26:49.051Z,80.90
2023-05-18T18:29:15.936Z,81.30
2023-05-18T18:31:42.857Z,81.90
2023-05-18T18:34:11.514Z,82.50
2023-05-18T18:36:39.057Z,83.70
2023-05-18T18:39:06.334Z,84.60
2023-05-18T18:41:33.279Z,85.50
2023-05-18T18:44:00.159Z,86.10
2023-05-18T18:46:27.132Z,86.90
2023-05-18T18:48:54.071Z,88.10
2023-05-18T18:51:20.982Z,89.30
2023-05-18T18:53:47.921Z,90.80
2023-05-18T18:56:14.841Z,91.40
2023-05-18T18:58:41.749Z,92.40
2023-05-18T19:01:08.664Z,93.30
2023-05-18T19:03:35.924Z,94.40
2023-05-18T19:06:03.051Z,95.50
2023-05-18T19:08:29.961Z,96.70
2023-05-18T19:10:56.885Z,97.50
2023-05-18T19:13:23.878Z,98.90
2023-05-18T19:15:51.409Z,99.90
2023-05-18T19:18:18.326Z,99.90
2023-05-18T19:20:45.510Z,99.90
2023-05-18T19:23:12.364Z,99.90
2023-05-18T19:25:39.379Z,99.90
2023-05-18T19:28:06.758Z,99.90
2023-05-18T19:30:33.706Z,99.90
2023-05-18T19:33:00.822Z,99.90
2023-05-18T19:35:27.843Z,99.90
2023-05-18T19:37:54.883Z,99.90
2023-05-18T19:40:22.625Z,99.90
2023-05-18T19:42:50.218Z,99.90
2023-05-18T19:45:17.159Z,99.90
2023-05-18T19:47:44.008Z,99.90
2023-05-18T19:50:11.635Z,99.90
2023-05-18T19:52:38.667Z,99.90
2023-05-18T19:55:06.258Z,99.90
2023-05-18T19:57:36.169Z,99.90
2023-05-18T20:00:04.094Z,99.90
2023-05-18T20:02:33.757Z,99.90
2023-05-18T20:05:01.477Z,99.90
2023-05-18T20:07:28.481Z,99.90
2023-05-18T20:09:58.297Z,99.90
2023-05-18T20:12:28.332Z,99.90
2023-05-18T20:14:55.240Z,99.90
2023-05-18T20:17:22.108Z,99.90
2023-05-18T20:19:52.119Z,99.90
2023-05-18T20:22:19.525Z,99.90
2023-05-18T20:24:46.577Z,99.90
2023-05-18T20:27:16.793Z,99.90
2023-05-18T20:29:43.759Z,99.90
2023-05-18T20:32:10.768Z,99.90
2023-05-18T20:34:37.752Z,99.90
2023-05-18T20:37:05.395Z,99.90
2023-05-18T20:39:32.860Z,99.90
2023-05-18T20:41:59.793Z,99.90
2023-05-18T20:44:28.055Z,99.90
2023-05-18T20:46:55.036Z,99.90
2023-05-18T20:49:22.275Z,99.90
2023-05-18T20:51:49.747Z,99.90
2023-05-18T20:54:21.487Z,99.90
2023-05-18T20:56:48.943Z,99.90
2023-05-18T20:59:16.266Z,99.90
2023-05-18T21:01:44.015Z,99.90
2023-05-18T21:04:13.135Z,99.90
2023-05-18T21:06:41.022Z,99.90
2023-05-18T21:09:08.234Z,99.90
2023-05-18T21:11:35.289Z,99.90
2023-05-18T21:14:02.194Z,99.90
2023-05-18T21:16:29.086Z,99.90
2023-05-18T21:18:56.331Z,99.90
2023-05-18T21:21:23.293Z,99.90
2023-05-18T21:23:50.265Z,99.90
2023-05-18T21:26:17.153Z,99.90
2023-05-18T21:28:44.010Z,99.90
2023-05-18T21:31:10.908Z,99.90
2023-05-18T21:33:37.848Z,99.90
2023-05-18T21:36:05.923Z,99.90
2023-05-18T21:38:33.101Z,99.90
2023-05-18T21:40:59.936Z,99.90
2023-05-18T21:43:26.831Z,99.90
2023-05-18T21:45:53.794Z,99.90
2023-05-18T21:48:20.668Z,99.90
2023-05-18T21:50:47.816Z,99.90
2023-05-18T21:53:14.927Z,99.90
2023-05-18T21:55:41.899Z,99.90
2023-05-18T21:58:08.841Z,99.90
2023-05-18T22:00:37.605Z,99.90
2023-05-18T22:03:04.583Z,99.90
2023-05-18T22:05:31.530Z,99.90
2023-05-18T22:07:59.107Z,99.90
2023-05-18T22:10:26.281Z,99.90
2023-05-18T22:12:53.226Z,99.90
2023-05-18T22:15:22.394Z,99.90
2023-05-18T22:17:49.511Z,99.90
2023-05-18T22:20:17.248Z,99.90
2023-05-18T22:22:44.400Z,99.90
2023-05-18T22:25:12.973Z,99.90
2023-05-18T22:27:39.810Z,99.90
2023-05-18T22:30:08.344Z,99.90
2023-05-18T22:32:35.458Z,99.90
2023-05-18T22:35:03.108Z,99.90
2023-05-18T22:37:30.122Z,99.90
2023-05-18T22:39:57.128Z,99.90
2023-05-18T22:42:24.064Z,99.90
2023-05-18T22:44:51.347Z,99.90
2023-05-18T22:47:21.414Z,99.90
2023-05-18T22:49:49.197Z,99.90
2023-05-18T22:52:17.907Z,99.90
2023-05-18T22:54:45.155Z,99.90
2023-05-18T22:57:12.379Z,99.90
2023-05-18T22:59:39.239Z,99.90
2023-05-18T23:02:06.287Z,99.90
2023-05-18T23:04:34.462Z,99.90
2023-05-18T23:07:01.886Z,99.90
2023-05-18T23:09:30.446Z,99.90
2023-05-18T23:11:59.593Z,99.90
2023-05-18T23:14:31.185Z,99.90
2023-05-18T23:17:00.919Z,99.90
2023-05-18T23:19:28.147Z,99.90
2023-05-18T23:21:55.899Z,99.90
2023-05-18T23:24:22.786Z,99.90
2023-05-18T23:26:49.672Z,99.90
2023-05-18T23:29:16.624Z,99.90
2023-05-18T23:31:43.525Z,99.90
2023-05-18T23:34:10.895Z,99.90
2023-05-18T23:36:39.635Z,99.90
2023-05-18T23:39:07.057Z,99.90
2023-05-18T23:41:35.721Z,99.90
2023-05-18T23:44:03.351Z,99.90
2023-05-18T23:46:30.868Z,99.90
2023-05-18T23:48:59.670Z,99.90
2023-05-18T23:51:32.053Z,99.90
2023-05-18T23:53:59.360Z,99.90
2023-05-18T23:56:26.636Z,99.90
2023-05-18T23:58:53.672Z,99.90
